Terminal Aerodrome Forecast
Issued by NWS

Home | Current Version | Previous Version | Text Only | Print | Product List | Glossary On
Versions: 1 2 3 4 5 6 7 8 9 10 11 12 13 14 15 16 17 18 19 20 21
075
FTUS43 KILX 112127 AAB
TAFBMI
TAF AMD
KBMI 112127Z 1121/1218 30020G30KT P6SM BKN035
     FM120100 32016G27KT P6SM VCSH BKN020
     FM120300 33018G31KT P6SM VCSH OVC010
     FM120600 33020G32KT P6SM OVC020
     FM120900 33018G28KT P6SM SCT045
     FM121200 32015G24KT P6SM SCT250=

USA.gov is the U.S. government's official web portal to all federal, state and local government web resources and services.